الصفحة الرئيسية
METAR-TAF:

METAR-TAF

مطار :

مطار أوسلو-غاردرموين

أوسلو, النرويج

دائرة عرض: 60-12N, خط طول: 011-05E, ارتفاع: 208 متر

مراقبة الطقس الحالي

تاريخ ووقت الإصدار 14 دقيقة قبل الساعة 01:20UTC
ريح 1 عقدةمن اتجاهات متغيرة
درجة الحرارة 6°درجة مئوية
الرطوبة 100%
ضغط 1015 hPa
الرؤية: 0600 متر
ضباب

METAR: ENGM 170120Z VRB01KT 0600 R19R/0600N R01R/0900U FG VV001 06/06 Q1015

زمن: 03:34 (01:34 UTC)

توقعات

التوقعات صالحة من17 الساعة 00 UTC إلى 17 الساعة 24 UTC
ريح 5 عقدةمن اتجاهات متغيرة
الرؤية: 5000 متر
غيوم متفرقة على ارتفاع 200 قدم
غيوم مفككة على ارتفاع 800 قدم
مطر خفيف, رذاذ
مؤقت
من 17 الساعة 00 UTC إلى 17 الساعة 20 UTC
الرؤية: 0500 متر
على ارتفاع 200 قدم
ضباب
نظرية الاحتمالات 40%
من 17 الساعة 12 UTC إلى 17 الساعة 24 UTC
ريح 10 عقدة من الجنوب
غيوم مفككة على ارتفاع 2000 قدم

TAF: ENGM 1700/1724 VRB05KT 5000 -RADZ SCT002 BKN008 TEMPO 1700/1720 0500 FG VV002 PROB40 1712/1724 19010KT BKN020

أرصاد الطقس والتوقعات من أكثر من 4000 مطار (تقارير الطقس للمطار METAR والتنبؤ بالطقس بالمطارTAF).

المحطات المتاحة هي النقط الصفراء والحمراء على الخريطة.

حرك المؤشر فوق النقطة لمعرفة اسم المحطة.

ثم انقر لمعرفة أرصاد وتوقعات الطقس.

لتغيير الخارطة: اضغط على الأزرار الخضراء مع رمز الصليب الأسود للتكبير. على الزر الأخضر مع شرطة للتصغير، أو على الأسهم الخضراء للخرائط المجاورة.


METAR-TAF: